createdAt,value
2022-09-15T00:01:48.655Z,1.23
2022-09-15T00:04:19.258Z,1.20
2022-09-15T00:06:49.319Z,1.60
2022-09-15T00:09:20.956Z,3.05
2022-09-15T00:11:50.858Z,2.45
2022-09-15T00:14:21.586Z,2.50
2022-09-15T00:16:52.211Z,6.72
2022-09-15T00:19:22.262Z,13.38
2022-09-15T00:21:52.257Z,8.85
2022-09-15T00:24:23.797Z,8.15
2022-09-15T00:26:53.895Z,6.72
2022-09-15T00:29:24.045Z,7.60
2022-09-15T00:31:54.040Z,9.27
2022-09-15T00:34:24.108Z,7.72
2022-09-15T00:36:54.115Z,5.55
2022-09-15T00:39:25.627Z,7.97
2022-09-15T00:41:55.534Z,7.25
2022-09-15T00:45:01.657Z,8.35
2022-09-15T00:47:36.337Z,4.60
2022-09-15T00:52:12.299Z,5.00
2022-09-15T00:54:47.822Z,4.25
2022-09-15T00:57:22.464Z,4.70
2022-09-15T00:59:53.438Z,6.28
2022-09-15T01:02:26.990Z,6.60
2022-09-15T01:04:58.997Z,6.82
2022-09-15T01:07:39.788Z,5.18
2022-09-15T01:10:14.294Z,4.35
2022-09-15T01:12:44.795Z,4.07
2022-09-15T01:15:14.878Z,5.80
2022-09-15T01:18:03.398Z,3.85
2022-09-15T01:21:08.617Z,3.50
2022-09-15T01:24:39.659Z,4.90
2022-09-15T01:27:40.961Z,3.22
2022-09-15T01:30:15.230Z,3.20
2022-09-15T01:33:08.595Z,4.28
2022-09-15T01:35:55.156Z,3.83
2022-09-15T01:38:37.340Z,3.63
2022-09-15T01:41:13.784Z,1.85
2022-09-15T01:43:52.007Z,1.75
2022-09-15T01:46:28.299Z,2.05
2022-09-15T01:48:59.717Z,1.52
2022-09-15T01:51:31.204Z,1.30
2022-09-15T01:54:04.878Z,2.17
2022-09-15T01:56:35.115Z,1.85
2022-09-15T01:59:05.975Z,3.00
2022-09-15T02:01:44.235Z,2.17
2022-09-15T02:04:23.318Z,1.77
2022-09-15T02:07:02.855Z,1.63
2022-09-15T02:09:38.879Z,1.58
2022-09-15T02:12:17.958Z,1.55
2022-09-15T02:14:57.219Z,1.63
2022-09-15T02:17:33.104Z,1.63
2022-09-15T02:20:15.919Z,1.40
2022-09-15T02:25:24.537Z,1.65
2022-09-15T02:27:57.774Z,1.48
2022-09-15T02:30:29.361Z,1.63
2022-09-15T02:33:07.143Z,1.77
2022-09-15T02:35:39.239Z,1.75
2022-09-15T02:38:11.554Z,1.50
2022-09-15T02:40:45.819Z,1.52
2022-09-15T02:43:19.695Z,1.98
2022-09-15T02:45:49.934Z,1.58
2022-09-15T02:48:21.355Z,1.67
2022-09-15T02:50:51.318Z,1.88
2022-09-15T02:53:21.278Z,1.88
2022-09-15T02:55:51.348Z,1.40
2022-09-15T02:58:21.228Z,2.10
2022-09-15T03:00:51.180Z,2.00
2022-09-15T03:03:22.695Z,2.05
2022-09-15T03:05:52.768Z,1.52
2022-09-15T03:08:22.838Z,1.65
2022-09-15T03:10:52.836Z,2.10
2022-09-15T03:13:23.260Z,1.85
2022-09-15T03:15:53.307Z,1.58
2022-09-15T03:18:24.895Z,2.17
2022-09-15T03:20:59.643Z,1.90
2022-09-15T03:23:29.775Z,1.45
2022-09-15T03:26:00.465Z,2.25
2022-09-15T03:28:30.834Z,1.92
2022-09-15T03:31:00.985Z,1.98
2022-09-15T03:33:32.731Z,1.60
2022-09-15T03:36:03.517Z,1.60
2022-09-15T03:38:33.655Z,1.70
2022-09-15T03:41:06.735Z,0.98
2022-09-15T03:43:37.397Z,2.83
2022-09-15T03:46:09.972Z,4.65
2022-09-15T03:53:06.841Z,4.15
2022-09-15T03:55:36.841Z,4.90
2022-09-15T03:58:06.858Z,2.80
2022-09-15T04:00:36.932Z,4.10
2022-09-15T04:03:07.658Z,2.60
2022-09-15T04:05:37.691Z,2.88
2022-09-15T04:08:09.359Z,2.63
2022-09-15T04:10:41.955Z,2.70
2022-09-15T04:15:41.598Z,2.20
2022-09-15T04:18:12.436Z,1.95
2022-09-15T04:20:43.507Z,2.53
2022-09-15T04:23:15.063Z,2.55
2022-09-15T04:25:44.999Z,1.58
2022-09-15T04:28:15.038Z,1.98
2022-09-15T04:30:44.954Z,1.77
2022-09-15T04:33:14.876Z,1.70
2022-09-15T04:35:44.859Z,2.10
2022-09-15T04:38:16.422Z,2.03
2022-09-15T04:40:46.363Z,2.03
2022-09-15T04:43:16.485Z,1.98
2022-09-15T04:45:46.359Z,1.98
2022-09-15T04:48:16.546Z,1.75
2022-09-15T04:50:46.635Z,1.80
2022-09-15T04:53:18.600Z,1.90
2022-09-15T04:55:48.551Z,2.05
2022-09-15T04:58:18.520Z,1.80
2022-09-15T05:00:48.419Z,1.88
2022-09-15T05:03:18.516Z,1.65
2022-09-15T05:05:50.736Z,1.70
2022-09-15T05:08:22.158Z,1.45
2022-09-15T05:10:52.140Z,1.40
2022-09-15T05:13:22.164Z,1.60
2022-09-15T05:15:52.228Z,1.38
2022-09-15T05:18:22.299Z,1.38
2022-09-15T05:20:52.420Z,1.65
2022-09-15T05:23:23.774Z,1.50
2022-09-15T05:25:58.475Z,1.42
2022-09-15T05:28:28.715Z,1.38
2022-09-15T05:30:59.093Z,1.52
2022-09-15T05:33:29.118Z,1.55
2022-09-15T05:36:01.138Z,1.20
2022-09-15T05:38:35.063Z,1.52
2022-09-15T05:41:06.038Z,0.80
2022-09-15T05:43:37.575Z,0.85
2022-09-15T05:46:09.214Z,1.90
2022-09-15T05:48:39.589Z,1.60
2022-09-15T05:51:09.879Z,1.70
2022-09-15T05:53:42.280Z,1.88
2022-09-15T05:58:46.798Z,1.70
2022-09-15T06:01:19.347Z,1.13
2022-09-15T06:03:50.199Z,1.63
2022-09-15T06:06:22.134Z,1.60
2022-09-15T06:08:59.491Z,1.10
2022-09-15T06:11:31.780Z,1.70
2022-09-15T06:14:03.550Z,1.15
2022-09-15T06:16:36.046Z,1.17
2022-09-15T06:19:06.514Z,1.23
2022-09-15T06:21:37.303Z,1.02
2022-09-15T06:24:11.363Z,1.30
2022-09-15T06:26:41.337Z,1.90
2022-09-15T06:29:14.839Z,4.90
2022-09-15T06:31:44.934Z,4.18
2022-09-15T06:34:14.879Z,3.85
2022-09-15T06:36:44.880Z,1.80
2022-09-15T06:39:16.187Z,2.30
2022-09-15T06:42:01.847Z,2.08
2022-09-15T06:44:33.457Z,1.30
2022-09-15T06:47:03.487Z,1.15
2022-09-15T06:53:06.646Z,0.70
2022-09-15T06:55:36.662Z,0.67
2022-09-15T06:58:06.722Z,0.50
2022-09-15T07:00:36.718Z,0.50
2022-09-15T07:03:06.585Z,0.82
2022-09-15T07:05:36.761Z,0.40
2022-09-15T07:08:08.346Z,0.30
2022-09-15T07:10:38.262Z,0.25
2022-09-15T07:13:08.267Z,0.30
2022-09-15T07:15:38.800Z,0.40
2022-09-15T07:18:09.477Z,0.30
2022-09-15T07:20:42.297Z,0.50
2022-09-15T07:23:13.776Z,0.50
2022-09-15T07:25:44.520Z,0.73
2022-09-15T07:28:14.821Z,0.30
2022-09-15T07:30:45.755Z,0.30
2022-09-15T07:33:17.103Z,0.25
2022-09-15T07:35:48.076Z,0.43
2022-09-15T07:38:19.465Z,0.30
2022-09-15T07:40:49.720Z,0.30
2022-09-15T07:43:19.838Z,0.40
2022-09-15T07:45:50.142Z,0.30
2022-09-15T07:48:23.244Z,0.30
2022-09-15T07:50:56.454Z,0.28
2022-09-15T07:53:29.318Z,0.28
2022-09-15T07:55:59.557Z,0.60
2022-09-15T07:58:30.049Z,0.25
2022-09-15T08:01:05.881Z,0.28
2022-09-15T08:03:36.298Z,0.30
2022-09-15T08:06:07.058Z,0.30
2022-09-15T08:08:40.315Z,0.38
2022-09-15T08:11:15.107Z,0.30
2022-09-15T08:13:48.159Z,0.20
2022-09-15T08:16:20.646Z,0.40
2022-09-15T08:18:51.343Z,0.30
2022-09-15T08:21:23.698Z,0.20
2022-09-15T08:23:57.097Z,0.30
2022-09-15T08:26:29.093Z,0.50
2022-09-15T08:28:59.775Z,0.82
2022-09-15T08:31:29.834Z,2.58
2022-09-15T08:34:04.337Z,2.45
2022-09-15T08:36:34.260Z,2.67
2022-09-15T08:39:07.079Z,1.35
2022-09-15T08:41:41.858Z,2.50
2022-09-15T08:44:28.537Z,1.00
2022-09-15T08:47:05.673Z,1.25
2022-09-15T08:49:52.463Z,1.25
2022-09-15T08:52:30.677Z,0.30
2022-09-15T08:55:08.278Z,0.35
2022-09-15T08:57:38.368Z,0.60
2022-09-15T09:00:17.065Z,0.45
2022-09-15T09:03:25.936Z,0.50
2022-09-15T09:06:05.635Z,0.20
2022-09-15T09:09:18.154Z,0.35
2022-09-15T09:14:48.524Z,0.43
2022-09-15T09:17:41.560Z,0.30
2022-09-15T09:20:32.410Z,0.30
2022-09-15T09:23:05.858Z,0.30
2022-09-15T09:25:36.487Z,0.20
2022-09-15T09:28:14.815Z,0.90
2022-09-15T09:30:45.283Z,0.20
2022-09-15T09:33:29.797Z,0.20
2022-09-15T09:36:02.881Z,0.25
2022-09-15T09:38:37.828Z,0.30
2022-09-15T09:41:14.197Z,0.30
2022-09-15T09:43:47.681Z,0.40
2022-09-15T09:46:20.578Z,0.40
2022-09-15T09:48:56.719Z,0.30
2022-09-15T09:53:29.415Z,0.20
2022-09-15T09:56:25.134Z,0.32
2022-09-15T09:58:56.875Z,0.30
2022-09-15T10:04:21.476Z,0.25
2022-09-15T10:06:51.494Z,0.20
2022-09-15T10:09:23.359Z,0.20
2022-09-15T10:11:57.862Z,0.20
2022-09-15T10:14:30.936Z,0.40
2022-09-15T10:17:08.207Z,0.20
2022-09-15T10:19:47.979Z,0.50
2022-09-15T10:22:29.036Z,0.20
2022-09-15T10:25:02.060Z,0.20
2022-09-15T10:27:35.286Z,0.40
2022-09-15T10:30:21.754Z,0.20
2022-09-15T10:32:51.899Z,0.20
2022-09-15T10:35:23.383Z,0.28
2022-09-15T10:38:07.398Z,0.30
2022-09-15T10:40:48.099Z,0.30
2022-09-15T10:43:36.883Z,0.20
2022-09-15T10:46:14.646Z,0.35
2022-09-15T10:49:03.536Z,0.30
2022-09-15T10:51:49.697Z,0.60
2022-09-15T10:54:47.181Z,0.20
2022-09-15T10:57:36.958Z,0.10
2022-09-15T11:00:12.980Z,0.20
2022-09-15T11:03:14.496Z,0.47
2022-09-15T11:05:56.075Z,0.30
2022-09-15T11:08:53.266Z,0.20
2022-09-15T11:11:33.838Z,0.20
2022-09-15T11:14:24.537Z,0.17
2022-09-15T11:17:14.503Z,0.38
2022-09-15T11:20:15.717Z,0.45
2022-09-15T11:22:52.099Z,0.23
2022-09-15T11:25:24.838Z,0.20
2022-09-15T11:28:01.960Z,0.20
2022-09-15T11:30:42.456Z,0.20
2022-09-15T11:33:24.283Z,0.20
2022-09-15T11:36:01.074Z,0.20
2022-09-15T11:38:43.240Z,0.10
2022-09-15T11:41:38.625Z,0.20
2022-09-15T11:44:21.299Z,0.20
2022-09-15T11:47:09.658Z,0.10
2022-09-15T11:49:46.016Z,0.20
2022-09-15T11:52:36.168Z,0.52
2022-09-15T11:55:19.015Z,0.30
2022-09-15T11:57:58.917Z,0.30
2022-09-15T12:00:29.042Z,0.28
2022-09-15T12:03:23.606Z,0.20
2022-09-15T12:05:59.759Z,0.20
2022-09-15T12:08:38.075Z,0.30
2022-09-15T12:11:15.042Z,0.20
2022-09-15T12:13:45.135Z,0.20
2022-09-15T12:16:15.625Z,0.10
2022-09-15T12:18:53.032Z,0.28
2022-09-15T12:21:32.489Z,0.50
2022-09-15T12:24:11.468Z,0.20
2022-09-15T12:26:43.597Z,0.32
2022-09-15T12:29:42.246Z,0.20
2022-09-15T12:32:29.160Z,0.10
2022-09-15T12:35:13.371Z,0.20
2022-09-15T12:37:48.244Z,0.73
2022-09-15T12:40:37.068Z,0.20
2022-09-15T12:43:23.307Z,0.10
2022-09-15T12:46:00.083Z,0.40
2022-09-15T12:48:33.359Z,0.57
2022-09-15T12:53:20.565Z,0.20
2022-09-15T12:55:55.807Z,0.30
2022-09-15T12:58:36.784Z,0.20
2022-09-15T13:01:36.322Z,0.50
2022-09-15T13:04:51.785Z,0.30
2022-09-15T13:07:56.179Z,0.30
2022-09-15T13:10:39.805Z,0.40
2022-09-15T13:13:32.797Z,0.20
2022-09-15T13:16:05.351Z,0.20
2022-09-15T13:18:36.835Z,0.30
2022-09-15T13:21:16.087Z,0.30
2022-09-15T13:23:50.478Z,0.40
2022-09-15T13:26:26.277Z,0.25
2022-09-15T13:28:58.026Z,0.40
2022-09-15T13:31:41.519Z,0.25
2022-09-15T13:35:17.546Z,0.52
2022-09-15T13:38:46.510Z,0.40
2022-09-15T13:41:48.941Z,0.28
2022-09-15T13:45:03.214Z,0.40
2022-09-15T13:47:49.555Z,0.20
2022-09-15T13:50:26.840Z,0.40
2022-09-15T13:53:25.914Z,0.30
2022-09-15T13:55:57.337Z,0.65
2022-09-15T14:01:24.468Z,0.28
2022-09-15T14:03:58.835Z,0.30
2022-09-15T14:06:35.239Z,0.30
2022-09-15T14:09:12.568Z,0.40
2022-09-15T14:11:44.262Z,0.30
2022-09-15T14:17:04.609Z,0.30
2022-09-15T14:19:37.717Z,0.50
2022-09-15T14:22:27.846Z,0.30
2022-09-15T14:24:59.698Z,0.25
2022-09-15T14:27:32.606Z,0.30
2022-09-15T14:30:06.743Z,0.25
2022-09-15T14:32:41.099Z,0.30
2022-09-15T14:35:19.765Z,0.55
2022-09-15T14:37:52.183Z,0.30
2022-09-15T14:40:29.248Z,0.32
2022-09-15T14:42:59.614Z,0.52
2022-09-15T14:48:32.078Z,0.60
2022-09-15T14:51:07.555Z,0.50
2022-09-15T14:53:41.257Z,0.30
2022-09-15T14:56:14.715Z,0.30
2022-09-15T14:58:48.559Z,0.60
2022-09-15T15:01:25.920Z,0.40
2022-09-15T15:04:04.434Z,0.32
2022-09-15T15:06:38.876Z,0.43
2022-09-15T15:09:19.926Z,0.30
2022-09-15T15:11:53.519Z,0.30
2022-09-15T15:17:06.323Z,0.60
2022-09-15T15:19:40.100Z,0.45
2022-09-15T15:22:18.337Z,0.75
2022-09-15T15:24:51.638Z,0.80
2022-09-15T15:27:43.795Z,0.47
2022-09-15T15:33:03.134Z,0.50
2022-09-15T15:35:36.035Z,0.82
2022-09-15T15:38:09.934Z,0.50
2022-09-15T15:40:42.686Z,0.57
2022-09-15T15:43:26.647Z,0.30
2022-09-15T15:46:01.327Z,1.27
2022-09-15T15:48:38.188Z,0.43
2022-09-15T15:53:06.164Z,0.40
2022-09-15T15:55:43.495Z,0.60
2022-09-15T15:58:15.708Z,0.60
2022-09-15T16:00:48.562Z,1.55
2022-09-15T16:03:20.316Z,0.70
2022-09-15T16:05:54.114Z,0.63
2022-09-15T16:08:29.739Z,0.82
2022-09-15T16:11:00.982Z,1.15
2022-09-15T16:13:32.069Z,0.53
2022-09-15T16:16:03.735Z,0.47
2022-09-15T16:18:33.807Z,0.60
2022-09-15T16:21:03.779Z,1.30
2022-09-15T16:23:36.174Z,0.65
2022-09-15T16:26:09.334Z,1.30
2022-09-15T16:28:39.315Z,1.17
2022-09-15T16:31:13.099Z,1.20
2022-09-15T16:33:43.638Z,1.27
2022-09-15T16:36:16.678Z,0.90
2022-09-15T16:38:49.122Z,1.25
2022-09-15T16:41:23.298Z,1.23
2022-09-15T16:43:53.625Z,0.93
2022-09-15T16:46:23.717Z,1.02
2022-09-15T16:48:53.858Z,0.80
2022-09-15T16:51:30.964Z,1.42
2022-09-15T16:54:03.003Z,1.50
2022-09-15T16:56:33.067Z,0.88
2022-09-15T16:59:03.133Z,1.48
2022-09-15T17:01:33.417Z,1.70
2022-09-15T17:04:05.337Z,1.30
2022-09-15T17:06:35.315Z,1.40
2022-09-15T17:09:07.240Z,1.00
2022-09-15T17:11:37.178Z,1.20
2022-09-15T17:14:07.535Z,2.00
2022-09-15T17:16:39.662Z,1.27
2022-09-15T17:21:39.662Z,0.82
2022-09-15T17:24:11.856Z,1.10
2022-09-15T17:26:41.778Z,0.70
2022-09-15T17:29:11.694Z,1.00
2022-09-15T17:31:41.772Z,1.20
2022-09-15T17:34:16.060Z,1.00
2022-09-15T17:36:46.239Z,0.90
2022-09-15T17:39:17.677Z,1.08
2022-09-15T17:41:47.753Z,0.97
2022-09-15T17:44:17.676Z,0.90
2022-09-15T17:46:47.542Z,0.95
2022-09-15T17:49:17.707Z,0.90
2022-09-15T17:51:47.698Z,1.17
2022-09-15T17:54:19.299Z,1.10
2022-09-15T17:56:49.313Z,1.10
2022-09-15T17:59:19.315Z,1.10
2022-09-15T18:01:49.961Z,0.60
2022-09-15T18:04:20.039Z,0.77
2022-09-15T18:06:50.074Z,0.90
2022-09-15T18:09:21.716Z,0.70
2022-09-15T18:14:29.343Z,0.65
2022-09-15T18:16:59.405Z,0.98
2022-09-15T18:19:29.388Z,0.65
2022-09-15T18:21:59.518Z,1.30
2022-09-15T18:24:31.196Z,0.82
2022-09-15T18:27:01.077Z,0.60
2022-09-15T18:29:31.099Z,1.10
2022-09-15T18:32:03.494Z,0.90
2022-09-15T18:34:34.023Z,0.95
2022-09-15T18:37:04.423Z,0.85
2022-09-15T18:39:35.927Z,0.90
2022-09-15T18:42:06.266Z,1.20
2022-09-15T18:44:36.137Z,1.08
2022-09-15T18:47:06.635Z,0.60
2022-09-15T18:53:06.814Z,0.65
2022-09-15T18:55:36.706Z,1.17
2022-09-15T18:58:06.725Z,0.75
2022-09-15T19:00:36.640Z,1.17
2022-09-15T19:03:09.748Z,0.55
2022-09-15T19:05:40.443Z,0.93
2022-09-15T19:08:12.107Z,0.90
2022-09-15T19:10:44.567Z,0.88
2022-09-15T19:13:16.007Z,0.60
2022-09-15T19:15:48.111Z,1.00
2022-09-15T19:18:19.295Z,1.00
2022-09-15T19:20:49.315Z,0.90
2022-09-15T19:23:20.795Z,1.25
2022-09-15T19:25:50.704Z,0.70
2022-09-15T19:28:20.602Z,1.15
2022-09-15T19:30:51.073Z,0.90
2022-09-15T19:33:21.202Z,0.60
2022-09-15T19:36:04.935Z,0.70
2022-09-15T19:38:43.769Z,0.98
2022-09-15T19:41:16.817Z,0.75
2022-09-15T19:43:47.069Z,0.65
2022-09-15T19:46:20.257Z,0.90
2022-09-15T19:48:50.419Z,0.98
2022-09-15T19:51:21.240Z,0.73
2022-09-15T19:53:54.972Z,0.98
2022-09-15T19:56:27.684Z,0.88
2022-09-15T19:58:59.799Z,0.50
2022-09-15T20:01:33.015Z,0.75
2022-09-15T20:04:03.635Z,0.68
2022-09-15T20:06:33.735Z,1.17
2022-09-15T20:09:05.477Z,0.63
2022-09-15T20:11:36.301Z,1.30
2022-09-15T20:14:07.534Z,0.65
2022-09-15T20:16:38.029Z,0.88
2022-09-15T20:19:08.228Z,1.08
2022-09-15T20:21:55.565Z,1.00
2022-09-15T20:24:27.819Z,1.55
2022-09-15T20:26:59.249Z,1.55
2022-09-15T20:29:29.403Z,0.70
2022-09-15T20:31:59.436Z,0.98
2022-09-15T20:34:29.457Z,0.80
2022-09-15T20:36:59.461Z,0.70
2022-09-15T20:39:31.038Z,1.15
2022-09-15T20:42:01.058Z,0.80
2022-09-15T20:44:31.164Z,1.20
2022-09-15T20:47:01.137Z,1.27
2022-09-15T20:49:31.267Z,1.05
2022-09-15T20:52:01.255Z,0.93
2022-09-15T20:54:32.938Z,0.70
2022-09-15T20:57:03.240Z,0.93
2022-09-15T20:59:33.227Z,0.73
2022-09-15T21:02:05.078Z,1.17
2022-09-15T21:04:35.670Z,0.98
2022-09-15T21:07:05.725Z,0.90
2022-09-15T21:09:37.439Z,1.00
2022-09-15T21:12:08.036Z,1.15
2022-09-15T21:14:38.019Z,0.85
2022-09-15T21:17:08.015Z,1.00
2022-09-15T21:19:39.899Z,1.00
2022-09-15T21:22:09.940Z,1.00
2022-09-15T21:24:41.355Z,0.60
2022-09-15T21:27:30.878Z,1.07
2022-09-15T21:30:00.938Z,0.93
2022-09-15T21:32:30.899Z,1.08
2022-09-15T21:35:00.849Z,1.27
2022-09-15T21:37:32.314Z,1.10
2022-09-15T21:40:04.164Z,1.23
2022-09-15T21:42:34.325Z,1.20
2022-09-15T21:45:04.302Z,1.83
2022-09-15T21:47:34.602Z,0.90
2022-09-15T21:53:06.277Z,0.80
2022-09-15T21:55:39.253Z,0.95
2022-09-15T21:58:09.238Z,0.95
2022-09-15T22:00:40.762Z,1.35
2022-09-15T22:03:11.179Z,1.07
2022-09-15T22:05:42.497Z,1.70
2022-09-15T22:08:14.679Z,0.95
2022-09-15T22:10:46.175Z,0.98
2022-09-15T22:13:16.117Z,1.23
2022-09-15T22:15:46.019Z,1.20
2022-09-15T22:18:15.984Z,1.30
2022-09-15T22:20:46.182Z,1.10
2022-09-15T22:23:18.007Z,0.80
2022-09-15T22:25:47.907Z,1.10
2022-09-15T22:28:17.805Z,1.05
2022-09-15T22:30:47.634Z,0.80
2022-09-15T22:33:17.554Z,0.80
2022-09-15T22:35:50.162Z,1.60
2022-09-15T22:38:21.884Z,0.73
2022-09-15T22:40:51.857Z,0.90
2022-09-15T22:43:21.917Z,0.82
2022-09-15T22:45:52.534Z,1.05
2022-09-15T22:48:22.486Z,1.13
2022-09-15T22:50:52.330Z,1.52
2022-09-15T22:53:23.922Z,1.50
2022-09-15T22:55:54.374Z,1.53
2022-09-15T22:58:24.304Z,1.00
2022-09-15T23:00:54.553Z,1.20
2022-09-15T23:03:24.386Z,1.20
2022-09-15T23:06:00.779Z,1.27
2022-09-15T23:08:32.815Z,0.85
2022-09-15T23:11:08.997Z,0.70
2022-09-15T23:13:39.607Z,0.65
2022-09-15T23:16:10.726Z,1.90
2022-09-15T23:18:40.860Z,1.25
2022-09-15T23:21:13.238Z,0.93
2022-09-15T23:26:23.535Z,0.85
2022-09-15T23:28:53.805Z,1.48
2022-09-15T23:31:24.049Z,0.98
2022-09-15T23:33:54.155Z,1.23
2022-09-15T23:36:24.160Z,0.90
2022-09-15T23:38:55.635Z,1.10
2022-09-15T23:41:25.495Z,0.70
2022-09-15T23:43:55.959Z,1.10
2022-09-15T23:46:26.023Z,0.95
2022-09-15T23:48:55.980Z,1.00
2022-09-15T23:51:26.108Z,1.73
2022-09-15T23:53:57.655Z,1.05
2022-09-15T23:56:27.735Z,1.13
2022-09-15T23:58:57.714Z,1.00
